Latest Weather Observations for Rolleston Airport

IDQ60801

Issued at 4:32 pm EST Saturday 25 February 2017 (issued every 30 minutes, with the page automatically refreshed every 10 minutes)

About weather observations | Map of weather stations | Latest weather observations for QLD | Other Formats
Station Details ID: 035129 Name: ROLLESTON AIRPORT Lat: -24.46 Lon: 148.63 Height: 219.45 m
Data from the previous 72 hours. | See also: Recent months at Rolleston Airport
Date/Time
EST
Temp
°C
App
Temp
°C
Dew
Point
°C
Rel
Hum
%
Delta-T
°C
Wind Press
QNH
hPa
Press
MSL
hPa
Rain since
9am
mm
Dir  Spd
km/h
Gust
km/h
Spd
kts
Gust
kts
25/04:30pm 35.1 33.5 10.2 22 14.6 SE 9 22 5 12 1010.5 1009.1 0.0
25/04:00pm 35.5 32.3 11.2 23 14.5 SE 19 35 10 19 1010.6 1009.2 0.0
25/03:30pm 35.4 32.7 10.4 22 14.7 SE 15 26 8 14 1010.7 1009.3 0.0
25/03:00pm 35.7 33.5 10.7 22 14.8 E 13 26 7 14 1011.0 1009.6 0.0
25/02:30pm 35.4 34.2 10.4 22 14.7 SE 7 19 4 10 1011.5 1010.1 0.0
25/02:00pm 34.7 32.8 10.5 23 14.2 E 11 20 6 11 1012.1 1010.6 0.0
25/01:30pm 34.0 32.9 11.8 26 13.3 ENE 9 28 5 15 1012.7 1011.2 0.0
25/01:00pm 33.0 31.3 12.6 29 12.3 SSE 13 24 7 13 1013.3 1011.8 0.0
25/12:30pm 33.0 32.6 13.1 30 12.1 ESE 7 17 4 9 1013.9 1012.4 0.0
25/12:00pm 32.4 31.9 12.6 30 11.9 ESE 7 19 4 10 1014.4 1013.0 0.0
25/11:30am 31.8 30.5 12.6 31 11.5 E 11 22 6 12 1014.9 1013.5 0.0
25/11:00am 31.7 31.4 14.4 35 10.6 ESE 9 17 5 9 1015.4 1014.0 0.0
25/10:30am 29.5 30.2 15.6 43 8.6 ENE 6 15 3 8 1015.8 1014.4 0.0
25/10:00am 29.1 29.0 16.0 45 8.2 ENE 11 17 6 9 1016.1 1014.7 0.0
25/09:30am 28.9 28.6 15.4 44 8.3 ENE 11 20 6 11 1016.0 1014.6 0.0
25/09:00am 28.0 29.4 17.8 54 6.5 ENE 7 13 4 7 1016.0 1014.6 0.0
25/08:30am 26.9 28.3 18.7 60 5.3 NE 9 13 5 7 1016.1 1014.7 0.0
25/08:00am 26.5 28.7 19.6 66 4.5 E 7 13 4 7 1016.3 1014.9 0.0
25/07:30am 24.8 27.3 19.8 74 3.3 SE 6 7 3 4 1016.3 1014.9 0.0
25/07:00am 22.8 25.4 20.0 84 1.8 SSE 6 7 3 4 1016.0 1014.6 0.0
25/06:30am 22.0 24.2 19.2 84 1.8 SSE 6 6 3 3 1015.7 1014.3 0.0
25/06:00am 21.9 25.4 19.5 86 1.5 CALM 0 0 0 0 1015.3 1013.9 0.0
25/05:30am 21.8 25.1 19.0 84 1.8 CALM 0 0 0 0 1015.0 1013.6 0.0
25/05:00am 22.1 24.6 19.1 83 1.9 SE 4 4 2 2 1014.9 1013.5 0.0
25/04:30am 22.1 24.5 18.9 82 2.0 SE 4 6 2 3 1014.9 1013.5 0.0
25/04:00am 23.0 25.1 19.0 78 2.6 E 6 7 3 4 1014.9 1013.5 0.0
25/03:30am 23.8 26.0 19.1 75 3.0 E 6 6 3 3 1014.9 1013.5 0.0
25/03:00am 23.6 26.1 19.1 76 2.9 ESE 4 6 2 3 1014.6 1013.2 0.0
25/02:30am 24.0 26.2 19.3 75 3.0 E 6 7 3 4 1014.6 1013.2 0.0
25/02:00am 24.7 26.9 19.3 72 3.5 NE 6 7 3 4 1014.3 1012.9 0.0
25/01:30am 25.5 27.1 19.9 71 3.7 ENE 11 17 6 9 1014.4 1013.0 0.0
25/01:00am 25.7 27.0 19.3 67 4.1 ENE 11 17 6 9 1014.5 1013.1 0.0
25/12:30am 25.9 26.7 18.1 62 5.0 ENE 11 15 6 8 1014.3 1012.9 0.0
25/12:00am 25.6 25.6 14.1 49 6.9 E 7 9 4 5 1014.3 1012.9 0.0
 
Date/Time
EST
Temp
°C
App
Temp
°C
Dew
Point
°C
Rel
Hum
%
Delta-T
°C
Wind Press
QNH
hPa
Press
MSL
hPa
Rain since
9am
mm
Dir  Spd
km/h
Gust
km/h
Spd
kts
Gust
kts
24/11:30pm 26.5 24.9 11.4 39 8.7 E 11 15 6 8 1014.0 1012.6 0.0
24/11:00pm 25.1 23.2 10.6 40 8.2 SE 11 20 6 11 1013.9 1012.4 0.0
24/10:30pm 24.5 23.4 10.8 42 7.7 SE 7 7 4 4 1013.8 1012.3 0.0
24/10:00pm 24.8 23.6 11.7 44 7.5 SE 9 9 5 5 1013.8 1012.3 0.0
24/09:30pm 25.9 24.6 10.1 37 8.9 SSE 7 7 4 4 1013.9 1012.4 0.0
24/09:00pm 26.9 25.9 10.2 35 9.4 SSE 6 7 3 4 1013.9 1012.4 0.0
24/08:30pm 28.4 26.8 10.1 32 10.4 SSE 9 11 5 6 1013.8 1012.3 0.0
24/08:00pm 27.9 25.9 10.1 33 10.1 SSE 11 13 6 7 1013.7 1012.2 0.0
24/07:30pm 29.6 27.7 9.2 28 11.5 SSE 9 13 5 7 1013.4 1011.9 0.0
24/07:00pm 31.4 28.6 8.4 24 12.9 SE 13 17 7 9 1013.2 1011.7 0.0
24/06:30pm 33.1 29.6 7.1 20 14.4 SSE 15 20 8 11 1012.9 1011.4 0.0
24/06:00pm 34.7 31.0 6.1 17 15.7 SSE 15 20 8 11 1012.5 1011.0 0.0
24/05:30pm 35.6 32.0 6.8 17 16.0 SE 15 22 8 12 1012.3 1010.8 0.0
24/05:00pm 35.5 31.3 8.3 19 15.5 SE 20 32 11 17 1012.1 1010.6 0.0
24/04:30pm 36.2 33.1 8.9 19 15.7 ESE 15 28 8 15 1012.4 1010.9 0.0
24/04:00pm 36.0 31.5 7.1 17 16.2 SE 20 32 11 17 1012.6 1011.1 0.0
24/03:30pm 36.0 32.1 8.7 19 15.7 ESE 19 32 10 17 1012.8 1011.3 0.0
24/03:00pm 35.7 32.3 10.7 22 14.8 SE 19 39 10 21 1013.0 1011.5 0.0
24/02:30pm 35.7 32.5 10.0 21 15.0 E 17 32 9 17 1013.4 1011.9 0.0
24/02:00pm 35.8 33.0 11.4 23 14.6 ESE 17 39 9 21 1013.9 1012.4 0.0
24/01:30pm 34.3 33.0 13.7 29 12.7 SE 13 28 7 15 1014.3 1012.9 0.0
24/01:00pm 33.7 32.2 15.2 33 11.6 SSE 17 32 9 17 1015.0 1013.6 0.0
24/12:30pm 32.9 31.3 15.0 34 11.2 SE 17 32 9 17 1015.6 1014.2 0.0
24/12:00pm 32.1 30.8 14.7 35 10.8 SE 15 28 8 15 1016.2 1014.8 0.0
24/11:30am 31.7 32.5 17.2 42 9.3 SSW 9 17 5 9 1016.5 1015.1 0.0
24/11:00am 30.9 32.1 18.3 47 8.2 SSE 9 32 5 17 1017.1 1015.6 0.0
24/10:30am 29.8 31.2 17.9 48 7.7 ESE 7 13 4 7 1017.6 1016.1 0.0
24/10:00am 29.0 30.5 18.1 51 7.0 E 7 15 4 8 1017.8 1016.3 0.0
24/09:30am 27.9 29.4 18.0 55 6.3 ESE 7 19 4 10 1018.1 1016.7 0.0
24/09:00am 27.5 28.8 18.5 58 5.8 E 9 22 5 12 1018.2 1016.8 0.0
24/08:30am 26.6 27.7 17.9 59 5.5 ESE 9 15 5 8 1018.1 1016.7 0.0
24/08:00am 25.3 27.4 18.2 64 4.5 SSE 4 7 2 4 1018.1 1016.7 0.0
24/07:30am 24.1 26.3 18.3 70 3.7 SSE 4 6 2 3 1018.2 1016.8 0.0
24/07:00am 22.5 24.5 17.8 75 2.9 SSE 4 6 2 3 1017.9 1016.4 0.0
24/06:30am 21.3 23.0 18.1 82 2.0 SE 6 7 3 4 1017.7 1016.2 0.0
24/06:00am 20.7 22.5 17.5 82 2.0 S 4 6 2 3 1017.2 1015.7 0.0
24/05:30am 21.4 24.1 17.8 80 2.2 CALM 0 0 0 0 1016.8 1015.3 0.0
24/05:00am 21.6 24.2 17.6 78 2.5 CALM 0 2 0 1 1016.5 1015.1 0.0
24/04:30am 22.5 25.2 17.8 75 2.9 CALM 0 0 0 0 1016.2 1014.8 0.0
24/04:00am 23.2 24.9 18.1 73 3.2 NE 6 6 3 3 1016.1 1014.7 0.0
24/03:30am 23.6 25.1 18.0 71 3.5 ENE 7 9 4 5 1016.1 1014.7 0.0
24/03:00am 23.9 24.3 17.2 66 4.2 NE 11 13 6 7 1016.0 1014.6 0.0
24/02:30am 23.9 24.7 16.4 63 4.6 NE 7 9 4 5 1016.1 1014.7 0.0
24/02:00am 23.4 23.9 14.9 59 5.1 NE 6 9 3 5 1015.9 1014.5 0.0
24/01:30am 23.2 24.3 13.4 54 5.7 CALM 0 0 0 0 1016.0 1014.6 0.0
24/01:00am 25.0 24.9 13.2 48 6.9 ESE 6 9 3 5 1016.0 1014.6 0.0
24/12:30am 24.2 23.9 12.8 49 6.6 ESE 6 7 3 4 1016.1 1014.7 0.0
24/12:00am 24.8 24.6 13.0 47 6.9 SSE 6 7 3 4 1016.1 1014.7 0.0
 
Date/Time
EST
Temp
°C
App
Temp
°C
Dew
Point
°C
Rel
Hum
%
Delta-T
°C
Wind Press
QNH
hPa
Press
MSL
hPa
Rain since
9am
mm
Dir  Spd
km/h
Gust
km/h
Spd
kts
Gust
kts
23/11:30pm 24.5 24.1 14.0 52 6.2 SE 9 11 5 6 1016.1 1014.7 0.0
23/11:00pm 24.3 23.9 14.1 53 6.1 SE 9 9 5 5 1016.1 1014.7 0.0
23/10:30pm 25.0 25.0 13.5 48 6.8 SSE 6 7 3 4 1016.1 1014.7 0.0
23/10:00pm 25.6 25.4 13.1 46 7.3 SSE 6 7 3 4 1016.1 1014.7 0.0
23/09:30pm 26.2 25.9 12.6 43 8.0 SSE 6 6 3 3 1016.1 1014.7 0.0
23/09:00pm 27.0 26.5 11.9 39 8.8 SSE 6 6 3 3 1015.9 1014.5 0.0
23/08:30pm 28.0 26.8 11.5 35 9.6 SSE 9 11 5 6 1015.6 1014.2 0.0
23/08:00pm 28.9 27.3 11.5 34 10.1 SE 11 15 6 8 1015.3 1013.9 0.0
23/07:30pm 30.1 27.8 11.6 32 10.8 SE 15 20 8 11 1015.1 1013.7 0.0
23/07:00pm 30.8 28.1 11.7 31 11.2 SE 17 22 9 12 1014.8 1013.4 0.0
23/06:30pm 32.7 30.0 11.8 28 12.4 SSE 17 28 9 15 1014.4 1013.0 0.0
23/06:00pm 33.2 32.4 12.8 29 12.3 SSE 9 17 5 9 1014.1 1012.7 0.0
23/05:30pm 33.9 32.7 12.8 28 12.8 S 11 20 6 11 1013.9 1012.4 0.0
23/05:00pm 33.5 33.1 13.0 29 12.4 S 7 24 4 13 1013.9 1012.4 0.0
23/04:30pm 33.7 32.5 12.7 28 12.7 S 11 24 6 13 1013.8 1012.3 0.0
23/04:00pm 33.5 32.7 13.0 29 12.4 S 9 19 5 10 1013.9 1012.4 0.0
23/03:30pm 33.9 32.7 12.8 28 12.8 SE 11 20 6 11 1014.1 1012.7 0.0
23/03:00pm 33.6 32.1 13.1 29 12.5 S 13 22 7 12 1014.6 1013.2 0.0
23/02:30pm 33.2 32.2 13.3 30 12.1 SSW 11 19 6 10 1014.9 1013.5 0.0
23/02:00pm 33.0 31.1 13.1 30 12.1 S 15 24 8 13 1015.4 1014.0 0.0
23/01:30pm 32.5 32.1 14.1 32 11.3 SSE 9 20 5 11 1015.8 1014.4 0.0
23/01:00pm 31.3 30.4 13.6 34 10.7 SSW 11 19 6 10 1016.3 1014.9 0.0
23/12:30pm 31.0 28.9 13.7 34 10.5 SSE 17 28 9 15 1016.9 1015.4 0.0
23/12:00pm 31.2 30.8 15.2 38 9.9 SSE 11 20 6 11 1017.3 1015.8 0.0
23/11:30am 30.9 30.9 15.3 38 9.7 ESE 9 19 5 10 1017.6 1016.1 0.0
23/11:00am 29.5 29.5 14.1 39 9.3 SE 7 17 4 9 1018.2 1016.8 0.0
23/10:30am 28.9 28.7 13.6 39 9.2 ENE 7 15 4 8 1018.5 1017.1 0.0
23/10:00am 28.1 27.9 13.6 41 8.7 ESE 7 15 4 8 1018.9 1017.5 0.0
23/09:30am 27.8 27.4 14.1 43 8.3 ENE 9 15 5 8 1019.1 1017.7 0.0
23/09:00am 26.9 26.9 14.3 46 7.6 E 7 22 4 12 1019.3 1017.9 0.0
23/08:30am 26.2 26.1 15.0 50 6.8 ESE 9 15 5 8 1019.3 1017.9 0.0
23/08:00am 25.3 24.7 14.7 51 6.4 ESE 11 17 6 9 1019.2 1017.8 0.0
23/07:30am 24.9 24.9 15.2 54 5.9 SE 9 13 5 7 1018.9 1017.5 0.0
23/07:00am 24.3 25.0 15.5 58 5.3 ESE 6 9 3 5 1018.7 1017.3 0.0
23/06:30am 22.5 23.1 16.8 70 3.5 ESE 9 13 5 7 1018.5 1017.1 0.0
23/06:00am 20.9 22.7 17.3 80 2.2 SE 4 6 2 3 1018.2 1016.8 0.0
23/05:30am 22.5 23.8 17.0 71 3.4 ESE 6 7 3 4 1017.8 1016.3 0.0
23/05:00am 22.2 23.8 17.8 76 2.8 SE 6 7 3 4 1017.2 1015.7 0.0
23/04:30am 22.8 24.9 18.1 75 3.0 ESE 4 4 2 2 1017.1 1015.6 0.0
23/04:00am 24.0 25.5 17.5 67 4.1 E 6 9 3 5 1016.9 1015.4 0.0
23/03:30am 23.9 25.4 17.6 68 4.0 E 6 6 3 3 1016.8 1015.3 0.0
23/03:00am 23.8 25.6 17.5 68 3.9 E 4 4 2 2 1016.8 1015.3 0.0
23/02:30am 24.2 26.3 17.2 65 4.4 E 2 4 1 2 1016.8 1015.3 0.0
23/02:00am 25.0 26.1 17.2 62 4.9 NE 7 13 4 7 1016.5 1015.1 0.0
23/01:30am 25.3 26.1 17.2 61 5.1 NE 9 11 5 6 1016.7 1015.2 0.0
23/01:00am 25.9 27.1 17.3 59 5.4 NE 7 13 4 7 1016.5 1015.1 0.0
23/12:30am 26.3 28.1 17.4 58 5.6 NE 4 7 2 4 1016.5 1015.1 0.0
23/12:00am 26.9 26.9 17.1 55 6.2 NE 13 22 7 12 1016.5 1015.1 0.0
 
Date/Time
EST
Temp
°C
App
Temp
°C
Dew
Point
°C
Rel
Hum
%
Delta-T
°C
Wind Press
QNH
hPa
Press
MSL
hPa
Rain since
9am
mm
Dir  Spd
km/h
Gust
km/h
Spd
kts
Gust
kts
22/11:30pm 27.4 26.9 17.0 53 6.6 NE 15 22 8 12 1016.8 1015.3 0.0
22/11:00pm 27.9 27.1 17.1 51 6.8 NE 17 26 9 14 1016.3 1014.9 0.0
22/10:30pm 28.4 27.9 16.0 47 7.7 ENE 13 17 7 9 1016.0 1014.6 0.0
22/10:00pm 29.2 28.6 15.7 44 8.4 NE 13 19 7 10 1015.5 1014.1 0.0
22/09:30pm 26.6 27.2 15.9 51 6.6 SE 7 9 4 5 1015.1 1013.7 0.0
22/09:00pm 27.7 28.3 15.4 47 7.6 SE 6 6 3 3 1014.9 1013.5 0.0
22/08:30pm 29.0 29.9 15.2 43 8.5 SSW 4 7 2 4 1014.6 1013.2 0.0
22/08:00pm 29.3 29.8 15.1 42 8.7 NE 6 7 3 4 1014.2 1012.8 0.0
22/07:30pm 29.9 30.0 14.0 37 9.7 ENE 6 9 3 5 1013.8 1012.3 0.0
22/07:00pm 30.9 30.9 13.7 35 10.4 ENE 6 7 3 4 1013.6 1012.1 0.0
22/06:30pm 32.5 32.3 13.7 32 11.5 ENE 7 13 4 7 1013.4 1011.9 0.0
22/06:00pm 33.4 33.1 14.5 32 11.7 ESE 9 15 5 8 1013.2 1011.7 0.0
22/05:30pm 33.5 32.5 13.5 29 12.2 E 11 19 6 10 1012.9 1011.4 0.0
22/05:00pm 33.3 32.6 14.4 32 11.7 SE 11 15 6 8 1013.0 1011.5 0.0

Other Formats:

Comma delimited format used in spreadsheet applications
http://www.bom.gov.au/fwo/IDQ60801/IDQ60801.94396.axf

JavaScript Object Notation format (JSON) in row-major order
http://www.bom.gov.au/fwo/IDQ60801/IDQ60801.94396.json